Progreso, Mexico

5:50 PM EST on September 02, 2015 (GMT -0500)
INSTITUTO TECNOLOGICO SUPERIOR DE PROGRESO | | Change Station
CLOSE
Current Station
Personal Weather Station
Location: Progreso, YUCATáN
Elevation: 7 ft
Nearby Weather Stations

Elev 7 ft 21.28 °N, 89.65 °W | Updated 42 seconds ago

Mostly Cloudy
Mostly Cloudy
79.5 °F
Feels Like 84 °F
N
9.0
Wind Variable Wind from NNW
Gusts 12.0 mph

Today
High -- | Low -- °F
--% Chance of Precip.
Yesterday
High -- | Low -- °F
Precip. -- in
6:42 AM 7:13 PM
Waning Gibbous, 76% visible
Pressure 29.87 in
Visibility 5.0 miles
Clouds Mostly Cloudy 1500 ft
Heat Index 84 °F
Dew Point 76 °F
Humidity 88%
Rainfall 0.34 in
Snow Depth Not available.
UV 0.0 out of 12
Pollen Not available.
Air Quality Not available.
Flu Activity Not available.
METAR MMMD 022145Z 28008KT 5SM BKN015CB 25/23 A2987 RMK 60025 8/300 CI
Pressure 29.87 in
Visibility 5.0 miles
Clouds Mostly Cloudy 1500 ft
Heat Index 84 °F
Dew Point 76 °F
Humidity 88%
Rainfall 0.34 in
Snow Depth Not available.
UV 0.0 out of 12
Pollen Not available.
Air Quality Not available.
Flu Activity Not available.
METAR MMMD 022145Z 28008KT 5SM BKN015CB 25/23 A2987 RMK 60025 8/300 CI

10-Day Weather Forecast

×

Almanac

Astronomy

Sep. 02, 2015 Rise Set
Actual Time
Civil Twilight
Nautical Twilight
Astronomical Twilight
Moon
Length of Visible Light
Length of Day
Tomorrow will be .
, % of the Moon is Illuminated

Today's Extremes

Country Highs Country Lows

Community

WunderPhotos

Upload Photos

1,851,822 photos uploaded!

WunderBlogs® & News

Nearby

Air Quality

  Air Quality AQ Index Pollutant
Not available.

Snow Depth

Station Depth Elevation

Earthquake Activity

City Distance Mag. Time & Date
Minimum magnitude displayed is 2.5.

Coastal Water Temperatures

Place Temperature

Stations

Nearby Weather Stations

Station Location Temp. Windchill Dew Point Humidity Wind Precip. Elev Updated Type